LFRL 221500Z AUTO 24014KT 3900 BR OVC002 11/11 Q1029

ElémentsDécodage
LFRL Station météo située sur l'aérodrome de LANVEOC Poulmic
221500Z émis le 22 du mois à 15h00 UTC
AUTO Bulletin édité par un automate
24014KT vent du 240°, 14 noeuds
3900 visibilité horizontale de 3900 mètres
BR brume
OVC002 couverture nuageuse totale (8/8) à 200 pieds
11/11 température 11°C, point de rosée 11°C
 soit une humidité relative de 100%
Q1029 la pression au niveau de la mer (QNH) est de 1029 hPa